sensor_id;sensor_type;location;lat;lon;timestamp;P1;durP1;ratioP1;P2;durP2;ratioP2
24859;SDS011;12936;52.006;4.350;2022-07-01T00:02:19;13.07;;;10.20;;
24859;SDS011;12936;52.006;4.350;2022-07-01T00:04:48;14.10;;;10.35;;
24859;SDS011;12936;52.006;4.350;2022-07-01T00:07:16;15.87;;;11.20;;
24859;SDS011;12936;52.006;4.350;2022-07-01T00:09:44;18.93;;;11.07;;
24859;SDS011;12936;52.006;4.350;2022-07-01T00:12:13;18.47;;;10.77;;
24859;SDS011;12936;52.006;4.350;2022-07-01T00:14:42;14.27;;;11.23;;
24859;SDS011;12936;52.006;4.350;2022-07-01T00:17:13;14.17;;;11.00;;
24859;SDS011;12936;52.006;4.350;2022-07-01T00:19:42;15.43;;;11.67;;
24859;SDS011;12936;52.006;4.350;2022-07-01T00:22:10;15.15;;;11.40;;
24859;SDS011;12936;52.006;4.350;2022-07-01T00:24:38;14.27;;;11.43;;
24859;SDS011;12936;52.006;4.350;2022-07-01T00:27:07;14.17;;;11.30;;
24859;SDS011;12936;52.006;4.350;2022-07-01T00:29:35;13.47;;;11.17;;
24859;SDS011;12936;52.006;4.350;2022-07-01T00:32:07;14.75;;;11.52;;
24859;SDS011;12936;52.006;4.350;2022-07-01T00:34:37;13.50;;;11.20;;
24859;SDS011;12936;52.006;4.350;2022-07-01T00:37:26;15.93;;;10.67;;
24859;SDS011;12936;52.006;4.350;2022-07-01T00:39:56;21.40;;;11.60;;
24859;SDS011;12936;52.006;4.350;2022-07-01T00:42:24;16.30;;;11.27;;
24859;SDS011;12936;52.006;4.350;2022-07-01T00:44:53;18.70;;;11.73;;
24859;SDS011;12936;52.006;4.350;2022-07-01T00:47:22;16.30;;;11.73;;
24859;SDS011;12936;52.006;4.350;2022-07-01T00:49:53;13.80;;;10.43;;
24859;SDS011;12936;52.006;4.350;2022-07-01T00:52:23;15.00;;;9.93;;
24859;SDS011;12936;52.006;4.350;2022-07-01T00:54:55;17.90;;;10.60;;
24859;SDS011;12936;52.006;4.350;2022-07-01T00:57:29;15.17;;;10.50;;
24859;SDS011;12936;52.006;4.350;2022-07-01T01:00:00;13.23;;;9.27;;
24859;SDS011;12936;52.006;4.350;2022-07-01T01:02:32;16.87;;;9.87;;
24859;SDS011;12936;52.006;4.350;2022-07-01T01:05:01;11.77;;;8.40;;
24859;SDS011;12936;52.006;4.350;2022-07-01T01:07:36;12.03;;;9.27;;
24859;SDS011;12936;52.006;4.350;2022-07-01T01:10:05;16.17;;;8.50;;
24859;SDS011;12936;52.006;4.350;2022-07-01T01:12:35;12.47;;;8.50;;
24859;SDS011;12936;52.006;4.350;2022-07-01T01:15:08;17.47;;;8.10;;
24859;SDS011;12936;52.006;4.350;2022-07-01T01:17:38;11.63;;;8.47;;
24859;SDS011;12936;52.006;4.350;2022-07-01T01:22:44;9.23;;;7.40;;
24859;SDS011;12936;52.006;4.350;2022-07-01T01:25:14;12.90;;;7.83;;
24859;SDS011;12936;52.006;4.350;2022-07-01T01:27:44;12.73;;;7.60;;
24859;SDS011;12936;52.006;4.350;2022-07-01T01:30:14;11.97;;;7.53;;
24859;SDS011;12936;52.006;4.350;2022-07-01T01:32:46;9.80;;;7.90;;
24859;SDS011;12936;52.006;4.350;2022-07-01T01:35:17;8.93;;;7.40;;
24859;SDS011;12936;52.006;4.350;2022-07-01T01:37:50;11.27;;;7.87;;
24859;SDS011;12936;52.006;4.350;2022-07-01T01:40:20;9.80;;;6.47;;
24859;SDS011;12936;52.006;4.350;2022-07-01T01:42:49;10.80;;;7.00;;
24859;SDS011;12936;52.006;4.350;2022-07-01T01:45:19;10.37;;;6.43;;
24859;SDS011;12936;52.006;4.350;2022-07-01T01:47:52;11.10;;;7.00;;
24859;SDS011;12936;52.006;4.350;2022-07-01T01:50:20;12.40;;;6.60;;
24859;SDS011;12936;52.006;4.350;2022-07-01T01:52:53;7.77;;;6.37;;
24859;SDS011;12936;52.006;4.350;2022-07-01T01:55:21;9.17;;;6.07;;
24859;SDS011;12936;52.006;4.350;2022-07-01T01:57:52;11.52;;;5.88;;
24859;SDS011;12936;52.006;4.350;2022-07-01T02:00:20;10.98;;;6.00;;
24859;SDS011;12936;52.006;4.350;2022-07-01T02:02:48;11.05;;;6.28;;
24859;SDS011;12936;52.006;4.350;2022-07-01T02:05:18;7.77;;;5.30;;
24859;SDS011;12936;52.006;4.350;2022-07-01T02:07:57;8.87;;;5.37;;
24859;SDS011;12936;52.006;4.350;2022-07-01T02:10:33;9.90;;;5.53;;
24859;SDS011;12936;52.006;4.350;2022-07-01T02:13:02;8.67;;;5.30;;
24859;SDS011;12936;52.006;4.350;2022-07-01T02:15:30;9.97;;;4.80;;
24859;SDS011;12936;52.006;4.350;2022-07-01T02:17:58;11.20;;;5.37;;
24859;SDS011;12936;52.006;4.350;2022-07-01T02:20:27;10.67;;;5.20;;
24859;SDS011;12936;52.006;4.350;2022-07-01T02:23:01;12.30;;;5.57;;
24859;SDS011;12936;52.006;4.350;2022-07-01T02:25:34;9.00;;;5.07;;
24859;SDS011;12936;52.006;4.350;2022-07-01T02:28:04;11.40;;;5.00;;
24859;SDS011;12936;52.006;4.350;2022-07-01T02:30:35;10.23;;;4.90;;
24859;SDS011;12936;52.006;4.350;2022-07-01T02:33:06;7.80;;;4.43;;
24859;SDS011;12936;52.006;4.350;2022-07-01T02:35:38;9.23;;;4.60;;
24859;SDS011;12936;52.006;4.350;2022-07-01T02:38:13;8.23;;;4.67;;
24859;SDS011;12936;52.006;4.350;2022-07-01T02:40:43;8.40;;;4.50;;
24859;SDS011;12936;52.006;4.350;2022-07-01T02:43:28;6.47;;;4.10;;
24859;SDS011;12936;52.006;4.350;2022-07-01T02:46:16;11.77;;;4.70;;
24859;SDS011;12936;52.006;4.350;2022-07-01T02:48:48;10.53;;;4.77;;
24859;SDS011;12936;52.006;4.350;2022-07-01T02:51:16;10.17;;;4.37;;
24859;SDS011;12936;52.006;4.350;2022-07-01T02:53:55;5.90;;;4.43;;
24859;SDS011;12936;52.006;4.350;2022-07-01T02:56:24;8.60;;;4.97;;
24859;SDS011;12936;52.006;4.350;2022-07-01T02:58:52;8.73;;;5.37;;
24859;SDS011;12936;52.006;4.350;2022-07-01T03:01:21;11.20;;;5.23;;
24859;SDS011;12936;52.006;4.350;2022-07-01T03:03:49;12.90;;;4.73;;
24859;SDS011;12936;52.006;4.350;2022-07-01T03:06:20;12.60;;;6.03;;
24859;SDS011;12936;52.006;4.350;2022-07-01T03:09:04;12.33;;;5.63;;
24859;SDS011;12936;52.006;4.350;2022-07-01T03:11:32;13.63;;;6.07;;
24859;SDS011;12936;52.006;4.350;2022-07-01T03:14:03;13.50;;;5.83;;
24859;SDS011;12936;52.006;4.350;2022-07-01T03:16:32;9.10;;;5.53;;
24859;SDS011;12936;52.006;4.350;2022-07-01T03:19:01;9.23;;;5.63;;
24859;SDS011;12936;52.006;4.350;2022-07-01T03:21:31;11.70;;;5.90;;
24859;SDS011;12936;52.006;4.350;2022-07-01T03:24:01;11.10;;;5.60;;
24859;SDS011;12936;52.006;4.350;2022-07-01T03:26:31;10.37;;;5.50;;
24859;SDS011;12936;52.006;4.350;2022-07-01T03:29:04;10.53;;;6.23;;
24859;SDS011;12936;52.006;4.350;2022-07-01T03:31:36;10.77;;;5.67;;
24859;SDS011;12936;52.006;4.350;2022-07-01T03:34:06;12.00;;;6.40;;
24859;SDS011;12936;52.006;4.350;2022-07-01T03:36:56;11.70;;;5.72;;
24859;SDS011;12936;52.006;4.350;2022-07-01T03:39:27;10.20;;;6.43;;
24859;SDS011;12936;52.006;4.350;2022-07-01T03:41:56;11.53;;;5.67;;
24859;SDS011;12936;52.006;4.350;2022-07-01T03:44:24;10.60;;;6.20;;
24859;SDS011;12936;52.006;4.350;2022-07-01T03:46:54;14.50;;;6.07;;
24859;SDS011;12936;52.006;4.350;2022-07-01T03:49:25;15.90;;;7.17;;
24859;SDS011;12936;52.006;4.350;2022-07-01T03:52:07;12.20;;;6.10;;
24859;SDS011;12936;52.006;4.350;2022-07-01T03:54:36;9.20;;;5.07;;
24859;SDS011;12936;52.006;4.350;2022-07-01T03:57:08;10.03;;;5.80;;
24859;SDS011;12936;52.006;4.350;2022-07-01T03:59:40;9.87;;;6.00;;
24859;SDS011;12936;52.006;4.350;2022-07-01T04:02:09;9.73;;;5.67;;
24859;SDS011;12936;52.006;4.350;2022-07-01T04:04:37;11.03;;;5.73;;
24859;SDS011;12936;52.006;4.350;2022-07-01T04:07:06;11.65;;;6.00;;
24859;SDS011;12936;52.006;4.350;2022-07-01T04:09:36;12.93;;;5.57;;
24859;SDS011;12936;52.006;4.350;2022-07-01T04:12:05;10.60;;;5.63;;
24859;SDS011;12936;52.006;4.350;2022-07-01T04:14:34;11.83;;;5.67;;
24859;SDS011;12936;52.006;4.350;2022-07-01T04:17:03;13.53;;;5.60;;
24859;SDS011;12936;52.006;4.350;2022-07-01T04:19:31;10.67;;;5.50;;
24859;SDS011;12936;52.006;4.350;2022-07-01T04:22:00;14.03;;;5.73;;
24859;SDS011;12936;52.006;4.350;2022-07-01T04:24:47;15.90;;;5.53;;
24859;SDS011;12936;52.006;4.350;2022-07-01T04:27:15;10.80;;;5.00;;
24859;SDS011;12936;52.006;4.350;2022-07-01T04:29:43;10.30;;;4.90;;
24859;SDS011;12936;52.006;4.350;2022-07-01T04:32:12;10.93;;;5.23;;
24859;SDS011;12936;52.006;4.350;2022-07-01T04:34:40;10.40;;;5.17;;
24859;SDS011;12936;52.006;4.350;2022-07-01T04:37:08;14.93;;;5.03;;
24859;SDS011;12936;52.006;4.350;2022-07-01T04:39:38;11.00;;;4.70;;
24859;SDS011;12936;52.006;4.350;2022-07-01T04:42:07;11.80;;;4.73;;
24859;SDS011;12936;52.006;4.350;2022-07-01T04:44:36;8.33;;;4.70;;
24859;SDS011;12936;52.006;4.350;2022-07-01T04:47:09;14.80;;;5.83;;
24859;SDS011;12936;52.006;4.350;2022-07-01T04:49:37;10.50;;;4.83;;
24859;SDS011;12936;52.006;4.350;2022-07-01T04:52:06;10.03;;;4.73;;
24859;SDS011;12936;52.006;4.350;2022-07-01T04:54:34;13.13;;;4.77;;
24859;SDS011;12936;52.006;4.350;2022-07-01T04:57:03;13.87;;;4.70;;
24859;SDS011;12936;52.006;4.350;2022-07-01T04:59:33;11.03;;;4.57;;
24859;SDS011;12936;52.006;4.350;2022-07-01T05:02:02;12.80;;;4.80;;
24859;SDS011;12936;52.006;4.350;2022-07-01T05:04:37;13.40;;;4.70;;
24859;SDS011;12936;52.006;4.350;2022-07-01T05:07:07;10.00;;;4.27;;
24859;SDS011;12936;52.006;4.350;2022-07-01T05:09:54;10.17;;;4.40;;
24859;SDS011;12936;52.006;4.350;2022-07-01T05:12:22;9.10;;;4.07;;
24859;SDS011;12936;52.006;4.350;2022-07-01T05:14:52;13.67;;;4.87;;
24859;SDS011;12936;52.006;4.350;2022-07-01T05:17:20;11.10;;;4.93;;
24859;SDS011;12936;52.006;4.350;2022-07-01T05:20:10;11.53;;;4.37;;
24859;SDS011;12936;52.006;4.350;2022-07-01T05:22:56;14.90;;;4.93;;
24859;SDS011;12936;52.006;4.350;2022-07-01T05:25:24;10.17;;;3.77;;
24859;SDS011;12936;52.006;4.350;2022-07-01T05:27:52;11.30;;;4.30;;
24859;SDS011;12936;52.006;4.350;2022-07-01T05:30:22;13.03;;;4.30;;
24859;SDS011;12936;52.006;4.350;2022-07-01T05:32:50;16.13;;;4.60;;
24859;SDS011;12936;52.006;4.350;2022-07-01T05:35:18;15.00;;;4.80;;
24859;SDS011;12936;52.006;4.350;2022-07-01T05:37:46;13.97;;;4.47;;
24859;SDS011;12936;52.006;4.350;2022-07-01T05:40:14;11.33;;;4.10;;
24859;SDS011;12936;52.006;4.350;2022-07-01T05:42:42;15.77;;;4.83;;
24859;SDS011;12936;52.006;4.350;2022-07-01T05:45:10;9.03;;;3.93;;
24859;SDS011;12936;52.006;4.350;2022-07-01T05:47:40;11.07;;;4.03;;
24859;SDS011;12936;52.006;4.350;2022-07-01T05:50:08;11.57;;;3.83;;
24859;SDS011;12936;52.006;4.350;2022-07-01T05:52:36;11.93;;;4.13;;
24859;SDS011;12936;52.006;4.350;2022-07-01T05:55:05;10.40;;;4.20;;
24859;SDS011;12936;52.006;4.350;2022-07-01T05:57:34;10.33;;;4.30;;
24859;SDS011;12936;52.006;4.350;2022-07-01T06:00:02;13.43;;;4.30;;
24859;SDS011;12936;52.006;4.350;2022-07-01T06:02:31;12.90;;;4.83;;
24859;SDS011;12936;52.006;4.350;2022-07-01T06:05:00;10.70;;;4.23;;
24859;SDS011;12936;52.006;4.350;2022-07-01T06:07:29;11.17;;;4.37;;
24859;SDS011;12936;52.006;4.350;2022-07-01T06:09:57;11.63;;;4.07;;
24859;SDS011;12936;52.006;4.350;2022-07-01T06:12:27;13.37;;;4.50;;
24859;SDS011;12936;52.006;4.350;2022-07-01T06:14:55;11.83;;;4.63;;
24859;SDS011;12936;52.006;4.350;2022-07-01T06:17:23;12.90;;;4.50;;
24859;SDS011;12936;52.006;4.350;2022-07-01T06:19:51;11.20;;;4.70;;
24859;SDS011;12936;52.006;4.350;2022-07-01T06:22:21;11.57;;;3.93;;
24859;SDS011;12936;52.006;4.350;2022-07-01T06:24:51;13.83;;;3.90;;
24859;SDS011;12936;52.006;4.350;2022-07-01T06:27:19;8.57;;;3.57;;
24859;SDS011;12936;52.006;4.350;2022-07-01T06:29:47;8.27;;;4.27;;
24859;SDS011;12936;52.006;4.350;2022-07-01T06:32:15;12.40;;;3.93;;
24859;SDS011;12936;52.006;4.350;2022-07-01T06:34:44;10.73;;;4.20;;
24859;SDS011;12936;52.006;4.350;2022-07-01T06:37:12;12.13;;;3.80;;
24859;SDS011;12936;52.006;4.350;2022-07-01T06:39:42;10.37;;;3.53;;
24859;SDS011;12936;52.006;4.350;2022-07-01T06:42:10;10.20;;;3.53;;
24859;SDS011;12936;52.006;4.350;2022-07-01T06:44:39;9.10;;;3.27;;
24859;SDS011;12936;52.006;4.350;2022-07-01T06:47:09;12.97;;;3.83;;
24859;SDS011;12936;52.006;4.350;2022-07-01T06:49:37;13.90;;;4.13;;
24859;SDS011;12936;52.006;4.350;2022-07-01T06:52:06;12.07;;;3.67;;
24859;SDS011;12936;52.006;4.350;2022-07-01T06:54:34;8.70;;;3.30;;
24859;SDS011;12936;52.006;4.350;2022-07-01T06:57:06;7.23;;;3.17;;
24859;SDS011;12936;52.006;4.350;2022-07-01T06:59:35;8.98;;;2.78;;
24859;SDS011;12936;52.006;4.350;2022-07-01T07:02:03;8.20;;;2.60;;
24859;SDS011;12936;52.006;4.350;2022-07-01T07:04:33;9.77;;;2.70;;
24859;SDS011;12936;52.006;4.350;2022-07-01T07:07:22;10.33;;;2.80;;
24859;SDS011;12936;52.006;4.350;2022-07-01T07:09:50;10.27;;;2.83;;
24859;SDS011;12936;52.006;4.350;2022-07-01T07:12:20;8.48;;;3.00;;
24859;SDS011;12936;52.006;4.350;2022-07-01T07:14:48;10.57;;;2.90;;
24859;SDS011;12936;52.006;4.350;2022-07-01T07:17:16;8.57;;;2.40;;
24859;SDS011;12936;52.006;4.350;2022-07-01T07:19:44;8.37;;;2.50;;
24859;SDS011;12936;52.006;4.350;2022-07-01T07:22:12;7.80;;;2.13;;
24859;SDS011;12936;52.006;4.350;2022-07-01T07:24:41;15.73;;;2.45;;
24859;SDS011;12936;52.006;4.350;2022-07-01T07:27:09;8.53;;;2.30;;
24859;SDS011;12936;52.006;4.350;2022-07-01T07:29:38;10.50;;;2.37;;
24859;SDS011;12936;52.006;4.350;2022-07-01T07:32:07;8.25;;;2.53;;
24859;SDS011;12936;52.006;4.350;2022-07-01T07:34:35;6.00;;;2.00;;
24859;SDS011;12936;52.006;4.350;2022-07-01T07:37:04;9.25;;;2.28;;
24859;SDS011;12936;52.006;4.350;2022-07-01T07:39:32;9.20;;;2.47;;
24859;SDS011;12936;52.006;4.350;2022-07-01T07:42:01;8.90;;;2.22;;
24859;SDS011;12936;52.006;4.350;2022-07-01T07:44:29;10.30;;;2.60;;
24859;SDS011;12936;52.006;4.350;2022-07-01T07:46:58;7.45;;;2.10;;
24859;SDS011;12936;52.006;4.350;2022-07-01T07:49:27;4.77;;;1.77;;
24859;SDS011;12936;52.006;4.350;2022-07-01T07:51:55;6.00;;;2.00;;
24859;SDS011;12936;52.006;4.350;2022-07-01T07:54:23;7.17;;;2.37;;
24859;SDS011;12936;52.006;4.350;2022-07-01T07:56:51;5.50;;;1.67;;
24859;SDS011;12936;52.006;4.350;2022-07-01T07:59:20;8.27;;;1.70;;
24859;SDS011;12936;52.006;4.350;2022-07-01T08:01:48;5.70;;;1.77;;
24859;SDS011;12936;52.006;4.350;2022-07-01T08:04:20;8.27;;;1.40;;
24859;SDS011;12936;52.006;4.350;2022-07-01T08:06:48;5.43;;;1.30;;
24859;SDS011;12936;52.006;4.350;2022-07-01T08:09:16;4.40;;;1.60;;
24859;SDS011;12936;52.006;4.350;2022-07-01T08:11:44;6.80;;;1.20;;
24859;SDS011;12936;52.006;4.350;2022-07-01T08:14:12;4.67;;;1.20;;
24859;SDS011;12936;52.006;4.350;2022-07-01T08:16:46;3.93;;;1.10;;
24859;SDS011;12936;52.006;4.350;2022-07-01T08:19:14;6.10;;;1.77;;
24859;SDS011;12936;52.006;4.350;2022-07-01T08:21:44;7.97;;;2.30;;
24859;SDS011;12936;52.006;4.350;2022-07-01T08:24:12;7.33;;;1.77;;
24859;SDS011;12936;52.006;4.350;2022-07-01T08:26:40;10.90;;;1.60;;
24859;SDS011;12936;52.006;4.350;2022-07-01T08:29:09;8.00;;;1.67;;
24859;SDS011;12936;52.006;4.350;2022-07-01T08:31:37;4.83;;;1.70;;
24859;SDS011;12936;52.006;4.350;2022-07-01T08:34:06;12.07;;;1.58;;
24859;SDS011;12936;52.006;4.350;2022-07-01T08:36:36;6.20;;;2.00;;
24859;SDS011;12936;52.006;4.350;2022-07-01T08:39:06;5.43;;;1.80;;
24859;SDS011;12936;52.006;4.350;2022-07-01T08:41:35;6.95;;;1.67;;
24859;SDS011;12936;52.006;4.350;2022-07-01T08:44:03;7.18;;;2.38;;
24859;SDS011;12936;52.006;4.350;2022-07-01T08:46:31;9.07;;;1.95;;
24859;SDS011;12936;52.006;4.350;2022-07-01T08:49:01;11.07;;;2.10;;
24859;SDS011;12936;52.006;4.350;2022-07-01T08:51:29;7.17;;;1.90;;
24859;SDS011;12936;52.006;4.350;2022-07-01T08:53:58;9.50;;;1.90;;
24859;SDS011;12936;52.006;4.350;2022-07-01T08:56:27;9.10;;;2.05;;
24859;SDS011;12936;52.006;4.350;2022-07-01T08:59:12;6.78;;;1.45;;
24859;SDS011;12936;52.006;4.350;2022-07-01T09:01:54;5.33;;;2.13;;
24859;SDS011;12936;52.006;4.350;2022-07-01T09:04:23;6.97;;;1.10;;
24859;SDS011;12936;52.006;4.350;2022-07-01T09:06:53;5.60;;;1.30;;
24859;SDS011;12936;52.006;4.350;2022-07-01T09:09:28;3.87;;;1.27;;
24859;SDS011;12936;52.006;4.350;2022-07-01T09:12:01;7.93;;;0.93;;
24859;SDS011;12936;52.006;4.350;2022-07-01T09:14:31;3.43;;;1.00;;
24859;SDS011;12936;52.006;4.350;2022-07-01T09:17:04;2.57;;;0.70;;
24859;SDS011;12936;52.006;4.350;2022-07-01T09:19:35;3.75;;;0.93;;
24859;SDS011;12936;52.006;4.350;2022-07-01T09:22:11;3.30;;;0.90;;
24859;SDS011;12936;52.006;4.350;2022-07-01T09:24:40;3.33;;;0.88;;
24859;SDS011;12936;52.006;4.350;2022-07-01T09:27:12;3.55;;;1.15;;
24859;SDS011;12936;52.006;4.350;2022-07-01T09:29:44;4.95;;;0.95;;
24859;SDS011;12936;52.006;4.350;2022-07-01T09:32:22;2.80;;;0.90;;
24859;SDS011;12936;52.006;4.350;2022-07-01T09:34:51;4.35;;;1.63;;
24859;SDS011;12936;52.006;4.350;2022-07-01T09:37:40;8.13;;;1.25;;
24859;SDS011;12936;52.006;4.350;2022-07-01T09:40:09;6.57;;;1.10;;
24859;SDS011;12936;52.006;4.350;2022-07-01T09:42:43;3.47;;;1.10;;
24859;SDS011;12936;52.006;4.350;2022-07-01T09:45:13;7.40;;;0.97;;
24859;SDS011;12936;52.006;4.350;2022-07-01T09:47:42;2.60;;;0.98;;
24859;SDS011;12936;52.006;4.350;2022-07-01T09:50:10;8.00;;;1.43;;
24859;SDS011;12936;52.006;4.350;2022-07-01T09:52:39;5.10;;;1.08;;
24859;SDS011;12936;52.006;4.350;2022-07-01T09:55:08;4.03;;;1.00;;
24859;SDS011;12936;52.006;4.350;2022-07-01T09:57:40;6.18;;;1.40;;
24859;SDS011;12936;52.006;4.350;2022-07-01T10:00:10;7.80;;;1.75;;
24859;SDS011;12936;52.006;4.350;2022-07-01T10:02:39;6.35;;;1.77;;
24859;SDS011;12936;52.006;4.350;2022-07-01T10:05:09;7.97;;;1.63;;
24859;SDS011;12936;52.006;4.350;2022-07-01T10:07:48;4.68;;;1.45;;
24859;SDS011;12936;52.006;4.350;2022-07-01T10:10:48;11.60;;;2.33;;
24859;SDS011;12936;52.006;4.350;2022-07-01T10:13:21;8.63;;;1.75;;
24859;SDS011;12936;52.006;4.350;2022-07-01T10:15:56;7.95;;;1.70;;
24859;SDS011;12936;52.006;4.350;2022-07-01T10:18:25;9.57;;;1.92;;
24859;SDS011;12936;52.006;4.350;2022-07-01T10:20:55;9.35;;;1.50;;
24859;SDS011;12936;52.006;4.350;2022-07-01T10:23:27;6.93;;;1.90;;
24859;SDS011;12936;52.006;4.350;2022-07-01T10:26:04;5.75;;;1.42;;
24859;SDS011;12936;52.006;4.350;2022-07-01T10:28:43;5.20;;;1.77;;
24859;SDS011;12936;52.006;4.350;2022-07-01T10:31:13;7.32;;;1.58;;
24859;SDS011;12936;52.006;4.350;2022-07-01T10:33:46;7.70;;;1.58;;
24859;SDS011;12936;52.006;4.350;2022-07-01T10:36:17;5.03;;;1.30;;
24859;SDS011;12936;52.006;4.350;2022-07-01T10:39:14;8.80;;;1.35;;
24859;SDS011;12936;52.006;4.350;2022-07-01T10:42:02;8.88;;;1.48;;
24859;SDS011;12936;52.006;4.350;2022-07-01T10:45:02;6.07;;;1.08;;
24859;SDS011;12936;52.006;4.350;2022-07-01T10:47:35;8.00;;;1.70;;
24859;SDS011;12936;52.006;4.350;2022-07-01T10:50:04;3.75;;;1.20;;
24859;SDS011;12936;52.006;4.350;2022-07-01T10:52:37;7.13;;;1.30;;
24859;SDS011;12936;52.006;4.350;2022-07-01T10:55:06;6.43;;;1.45;;
24859;SDS011;12936;52.006;4.350;2022-07-01T10:57:38;4.75;;;1.40;;
24859;SDS011;12936;52.006;4.350;2022-07-01T11:00:28;7.70;;;1.55;;
24859;SDS011;12936;52.006;4.350;2022-07-01T11:03:05;3.10;;;1.13;;
24859;SDS011;12936;52.006;4.350;2022-07-01T11:05:35;6.25;;;1.65;;
24859;SDS011;12936;52.006;4.350;2022-07-01T11:08:04;5.55;;;1.45;;
24859;SDS011;12936;52.006;4.350;2022-07-01T11:10:37;4.78;;;1.27;;
24859;SDS011;12936;52.006;4.350;2022-07-01T11:13:06;6.63;;;1.50;;
24859;SDS011;12936;52.006;4.350;2022-07-01T11:15:36;6.40;;;1.92;;
24859;SDS011;12936;52.006;4.350;2022-07-01T11:18:05;7.32;;;1.80;;
24859;SDS011;12936;52.006;4.350;2022-07-01T11:20:34;4.30;;;1.40;;
24859;SDS011;12936;52.006;4.350;2022-07-01T11:23:02;7.25;;;1.52;;
24859;SDS011;12936;52.006;4.350;2022-07-01T11:25:30;8.48;;;1.73;;
24859;SDS011;12936;52.006;4.350;2022-07-01T11:27:58;6.07;;;1.60;;
24859;SDS011;12936;52.006;4.350;2022-07-01T11:30:26;5.43;;;1.37;;
24859;SDS011;12936;52.006;4.350;2022-07-01T11:32:58;8.67;;;1.57;;
24859;SDS011;12936;52.006;4.350;2022-07-01T11:35:27;7.72;;;1.10;;
24859;SDS011;12936;52.006;4.350;2022-07-01T11:38:14;4.53;;;0.80;;
24859;SDS011;12936;52.006;4.350;2022-07-01T11:41:01;4.90;;;1.00;;
24859;SDS011;12936;52.006;4.350;2022-07-01T11:43:31;2.97;;;0.82;;
24859;SDS011;12936;52.006;4.350;2022-07-01T11:46:01;4.57;;;0.80;;
24859;SDS011;12936;52.006;4.350;2022-07-01T11:48:46;4.07;;;0.73;;
24859;SDS011;12936;52.006;4.350;2022-07-01T11:51:17;2.90;;;0.75;;
24859;SDS011;12936;52.006;4.350;2022-07-01T11:53:47;4.00;;;1.02;;
24859;SDS011;12936;52.006;4.350;2022-07-01T11:56:17;3.97;;;0.77;;
24859;SDS011;12936;52.006;4.350;2022-07-01T11:58:55;4.75;;;0.68;;
24859;SDS011;12936;52.006;4.350;2022-07-01T12:01:24;4.25;;;1.05;;
24859;SDS011;12936;52.006;4.350;2022-07-01T12:03:56;7.50;;;0.95;;
24859;SDS011;12936;52.006;4.350;2022-07-01T12:06:26;6.05;;;1.10;;
24859;SDS011;12936;52.006;4.350;2022-07-01T12:08:55;2.75;;;0.70;;
24859;SDS011;12936;52.006;4.350;2022-07-01T12:11:24;2.28;;;0.63;;
24859;SDS011;12936;52.006;4.350;2022-07-01T12:13:54;5.57;;;1.02;;
24859;SDS011;12936;52.006;4.350;2022-07-01T12:16:23;3.47;;;0.82;;
24859;SDS011;12936;52.006;4.350;2022-07-01T12:18:57;5.07;;;0.93;;
24859;SDS011;12936;52.006;4.350;2022-07-01T12:21:27;6.03;;;1.00;;
24859;SDS011;12936;52.006;4.350;2022-07-01T12:24:05;3.45;;;0.98;;
24859;SDS011;12936;52.006;4.350;2022-07-01T12:26:34;2.92;;;0.95;;
24859;SDS011;12936;52.006;4.350;2022-07-01T12:29:03;3.60;;;0.90;;
24859;SDS011;12936;52.006;4.350;2022-07-01T12:31:34;3.33;;;1.00;;
24859;SDS011;12936;52.006;4.350;2022-07-01T12:34:04;3.72;;;0.90;;
24859;SDS011;12936;52.006;4.350;2022-07-01T12:36:32;4.75;;;1.10;;
24859;SDS011;12936;52.006;4.350;2022-07-01T12:39:02;3.03;;;1.05;;
24859;SDS011;12936;52.006;4.350;2022-07-01T12:41:32;3.90;;;1.15;;
24859;SDS011;12936;52.006;4.350;2022-07-01T12:44:05;3.90;;;1.25;;
24859;SDS011;12936;52.006;4.350;2022-07-01T12:46:46;4.97;;;1.25;;
24859;SDS011;12936;52.006;4.350;2022-07-01T12:49:19;6.40;;;1.30;;
24859;SDS011;12936;52.006;4.350;2022-07-01T12:51:48;6.57;;;1.20;;
24859;SDS011;12936;52.006;4.350;2022-07-01T12:54:29;6.65;;;1.23;;
24859;SDS011;12936;52.006;4.350;2022-07-01T12:56:58;5.97;;;1.50;;
24859;SDS011;12936;52.006;4.350;2022-07-01T12:59:27;6.25;;;1.40;;
24859;SDS011;12936;52.006;4.350;2022-07-01T13:01:55;4.90;;;1.38;;
24859;SDS011;12936;52.006;4.350;2022-07-01T13:04:29;7.30;;;2.03;;
24859;SDS011;12936;52.006;4.350;2022-07-01T13:06:58;4.55;;;1.38;;
24859;SDS011;12936;52.006;4.350;2022-07-01T13:09:26;4.47;;;1.30;;
24859;SDS011;12936;52.006;4.350;2022-07-01T13:11:54;3.25;;;1.20;;
24859;SDS011;12936;52.006;4.350;2022-07-01T13:14:23;8.13;;;1.40;;
24859;SDS011;12936;52.006;4.350;2022-07-01T13:16:51;4.75;;;1.30;;
24859;SDS011;12936;52.006;4.350;2022-07-01T13:19:19;18.63;;;2.60;;
24859;SDS011;12936;52.006;4.350;2022-07-01T13:21:49;4.80;;;1.60;;
24859;SDS011;12936;52.006;4.350;2022-07-01T13:24:17;4.07;;;1.60;;
24859;SDS011;12936;52.006;4.350;2022-07-01T13:27:02;7.13;;;2.00;;
24859;SDS011;12936;52.006;4.350;2022-07-01T13:29:31;4.28;;;1.00;;
24859;SDS011;12936;52.006;4.350;2022-07-01T13:31:59;4.55;;;1.15;;
24859;SDS011;12936;52.006;4.350;2022-07-01T13:34:27;7.93;;;2.15;;
24859;SDS011;12936;52.006;4.350;2022-07-01T13:36:57;5.22;;;1.23;;
24859;SDS011;12936;52.006;4.350;2022-07-01T13:39:25;2.67;;;1.05;;
24859;SDS011;12936;52.006;4.350;2022-07-01T13:41:53;6.95;;;1.40;;
24859;SDS011;12936;52.006;4.350;2022-07-01T13:44:22;4.22;;;1.10;;
24859;SDS011;12936;52.006;4.350;2022-07-01T13:46:50;3.50;;;1.02;;
24859;SDS011;12936;52.006;4.350;2022-07-01T13:49:18;4.75;;;1.20;;
24859;SDS011;12936;52.006;4.350;2022-07-01T13:51:46;6.10;;;1.15;;
24859;SDS011;12936;52.006;4.350;2022-07-01T13:54:16;3.58;;;1.00;;
24859;SDS011;12936;52.006;4.350;2022-07-01T13:56:44;3.83;;;0.88;;
24859;SDS011;12936;52.006;4.350;2022-07-01T13:59:12;6.40;;;0.57;;
24859;SDS011;12936;52.006;4.350;2022-07-01T14:01:40;4.18;;;0.55;;
24859;SDS011;12936;52.006;4.350;2022-07-01T14:04:09;1.23;;;0.52;;
24859;SDS011;12936;52.006;4.350;2022-07-01T14:06:38;3.00;;;0.65;;
24859;SDS011;12936;52.006;4.350;2022-07-01T14:09:06;3.45;;;0.70;;
24859;SDS011;12936;52.006;4.350;2022-07-01T14:11:35;1.73;;;0.88;;
24859;SDS011;12936;52.006;4.350;2022-07-01T14:14:04;3.78;;;0.65;;
24859;SDS011;12936;52.006;4.350;2022-07-01T14:16:33;3.15;;;0.68;;
24859;SDS011;12936;52.006;4.350;2022-07-01T14:19:01;2.25;;;0.50;;
24859;SDS011;12936;52.006;4.350;2022-07-01T14:21:30;4.28;;;0.70;;
24859;SDS011;12936;52.006;4.350;2022-07-01T14:23:59;4.28;;;0.93;;
24859;SDS011;12936;52.006;4.350;2022-07-01T14:26:27;0.98;;;0.40;;
24859;SDS011;12936;52.006;4.350;2022-07-01T14:28:56;2.08;;;0.52;;
24859;SDS011;12936;52.006;4.350;2022-07-01T14:31:24;2.70;;;0.57;;
24859;SDS011;12936;52.006;4.350;2022-07-01T14:33:53;3.03;;;0.60;;
24859;SDS011;12936;52.006;4.350;2022-07-01T14:36:21;2.60;;;0.55;;
24859;SDS011;12936;52.006;4.350;2022-07-01T14:38:49;3.90;;;0.88;;
24859;SDS011;12936;52.006;4.350;2022-07-01T14:41:17;2.55;;;0.93;;
24859;SDS011;12936;52.006;4.350;2022-07-01T14:43:45;6.20;;;1.00;;
24859;SDS011;12936;52.006;4.350;2022-07-01T14:46:15;3.35;;;0.50;;
24859;SDS011;12936;52.006;4.350;2022-07-01T14:48:43;1.92;;;0.60;;
24859;SDS011;12936;52.006;4.350;2022-07-01T14:51:11;2.75;;;0.70;;
24859;SDS011;12936;52.006;4.350;2022-07-01T14:53:40;2.92;;;1.08;;
24859;SDS011;12936;52.006;4.350;2022-07-01T14:56:10;3.92;;;0.75;;
24859;SDS011;12936;52.006;4.350;2022-07-01T14:58:39;6.97;;;1.10;;
24859;SDS011;12936;52.006;4.350;2022-07-01T15:01:08;6.85;;;0.70;;
24859;SDS011;12936;52.006;4.350;2022-07-01T15:03:38;4.00;;;1.10;;
24859;SDS011;12936;52.006;4.350;2022-07-01T15:06:06;6.07;;;0.98;;